sensor_id;sensor_type;location;lat;lon;timestamp;P1;durP1;ratioP1;P2;durP2;ratioP2
27412;SDS011;14871;52.702;5.230;2024-03-29T00:01:14;5.25;;;1.10;;
27412;SDS011;14871;52.702;5.230;2024-03-29T00:03:40;9.73;;;1.23;;
27412;SDS011;14871;52.702;5.230;2024-03-29T00:06:06;5.45;;;1.13;;
27412;SDS011;14871;52.702;5.230;2024-03-29T00:08:32;5.65;;;1.00;;
27412;SDS011;14871;52.702;5.230;2024-03-29T00:10:58;5.20;;;0.80;;
27412;SDS011;14871;52.702;5.230;2024-03-29T00:13:24;7.50;;;1.20;;
27412;SDS011;14871;52.702;5.230;2024-03-29T00:15:50;2.67;;;1.35;;
27412;SDS011;14871;52.702;5.230;2024-03-29T00:18:16;5.72;;;0.93;;
27412;SDS011;14871;52.702;5.230;2024-03-29T00:20:42;10.73;;;1.35;;
27412;SDS011;14871;52.702;5.230;2024-03-29T00:23:07;5.68;;;1.08;;
27412;SDS011;14871;52.702;5.230;2024-03-29T00:25:33;3.72;;;1.10;;
27412;SDS011;14871;52.702;5.230;2024-03-29T00:27:58;8.88;;;1.98;;
27412;SDS011;14871;52.702;5.230;2024-03-29T00:30:25;3.78;;;1.00;;
27412;SDS011;14871;52.702;5.230;2024-03-29T00:32:51;6.57;;;1.60;;
27412;SDS011;14871;52.702;5.230;2024-03-29T00:35:16;7.95;;;1.63;;
27412;SDS011;14871;52.702;5.230;2024-03-29T00:37:42;7.72;;;1.20;;
27412;SDS011;14871;52.702;5.230;2024-03-29T00:40:08;2.80;;;0.88;;
27412;SDS011;14871;52.702;5.230;2024-03-29T00:42:34;7.63;;;1.10;;
27412;SDS011;14871;52.702;5.230;2024-03-29T00:45:00;7.85;;;1.17;;
27412;SDS011;14871;52.702;5.230;2024-03-29T00:47:25;8.43;;;1.00;;
27412;SDS011;14871;52.702;5.230;2024-03-29T00:49:51;7.22;;;1.38;;
27412;SDS011;14871;52.702;5.230;2024-03-29T00:52:17;6.35;;;1.13;;
27412;SDS011;14871;52.702;5.230;2024-03-29T00:54:42;6.63;;;1.27;;
27412;SDS011;14871;52.702;5.230;2024-03-29T00:57:08;7.85;;;1.75;;
27412;SDS011;14871;52.702;5.230;2024-03-29T00:59:38;7.28;;;1.45;;
27412;SDS011;14871;52.702;5.230;2024-03-29T01:02:04;7.65;;;1.88;;
27412;SDS011;14871;52.702;5.230;2024-03-29T01:04:29;5.38;;;1.40;;
27412;SDS011;14871;52.702;5.230;2024-03-29T01:06:55;7.68;;;1.00;;
27412;SDS011;14871;52.702;5.230;2024-03-29T01:09:21;5.13;;;1.10;;
27412;SDS011;14871;52.702;5.230;2024-03-29T01:11:47;7.18;;;0.93;;
27412;SDS011;14871;52.702;5.230;2024-03-29T01:14:12;9.07;;;1.80;;
27412;SDS011;14871;52.702;5.230;2024-03-29T01:16:38;8.70;;;1.33;;
27412;SDS011;14871;52.702;5.230;2024-03-29T01:19:03;6.35;;;1.00;;
27412;SDS011;14871;52.702;5.230;2024-03-29T01:21:30;5.85;;;1.00;;
27412;SDS011;14871;52.702;5.230;2024-03-29T01:23:56;10.38;;;1.73;;
27412;SDS011;14871;52.702;5.230;2024-03-29T01:26:21;7.45;;;1.70;;
27412;SDS011;14871;52.702;5.230;2024-03-29T01:28:47;7.68;;;1.17;;
27412;SDS011;14871;52.702;5.230;2024-03-29T01:31:12;6.60;;;1.38;;
27412;SDS011;14871;52.702;5.230;2024-03-29T01:33:38;7.03;;;1.40;;
27412;SDS011;14871;52.702;5.230;2024-03-29T01:36:05;8.15;;;1.48;;
27412;SDS011;14871;52.702;5.230;2024-03-29T01:38:31;4.60;;;1.30;;
27412;SDS011;14871;52.702;5.230;2024-03-29T01:40:57;7.22;;;1.48;;
27412;SDS011;14871;52.702;5.230;2024-03-29T01:43:23;7.10;;;1.10;;
27412;SDS011;14871;52.702;5.230;2024-03-29T01:45:49;7.68;;;1.20;;
27412;SDS011;14871;52.702;5.230;2024-03-29T01:48:18;5.85;;;1.02;;
27412;SDS011;14871;52.702;5.230;2024-03-29T01:50:45;8.95;;;1.80;;
27412;SDS011;14871;52.702;5.230;2024-03-29T01:53:13;8.52;;;1.20;;
27412;SDS011;14871;52.702;5.230;2024-03-29T01:55:40;6.95;;;1.20;;
27412;SDS011;14871;52.702;5.230;2024-03-29T01:58:07;7.25;;;1.40;;
27412;SDS011;14871;52.702;5.230;2024-03-29T02:00:36;2.22;;;0.88;;
27412;SDS011;14871;52.702;5.230;2024-03-29T02:03:09;2.78;;;0.70;;
27412;SDS011;14871;52.702;5.230;2024-03-29T02:05:38;6.70;;;1.60;;
27412;SDS011;14871;52.702;5.230;2024-03-29T02:08:05;4.88;;;1.27;;
27412;SDS011;14871;52.702;5.230;2024-03-29T02:10:32;8.27;;;1.20;;
27412;SDS011;14871;52.702;5.230;2024-03-29T02:12:58;6.78;;;1.67;;
27412;SDS011;14871;52.702;5.230;2024-03-29T02:15:24;3.90;;;1.10;;
27412;SDS011;14871;52.702;5.230;2024-03-29T02:17:49;4.95;;;0.80;;
27412;SDS011;14871;52.702;5.230;2024-03-29T02:20:16;2.75;;;0.80;;
27412;SDS011;14871;52.702;5.230;2024-03-29T02:22:45;4.63;;;1.42;;
27412;SDS011;14871;52.702;5.230;2024-03-29T02:25:18;2.80;;;1.10;;
27412;SDS011;14871;52.702;5.230;2024-03-29T02:27:44;3.50;;;0.95;;
27412;SDS011;14871;52.702;5.230;2024-03-29T02:30:19;8.85;;;1.20;;
27412;SDS011;14871;52.702;5.230;2024-03-29T02:32:45;5.15;;;1.00;;
27412;SDS011;14871;52.702;5.230;2024-03-29T02:35:11;7.22;;;1.23;;
27412;SDS011;14871;52.702;5.230;2024-03-29T02:37:36;3.70;;;1.10;;
27412;SDS011;14871;52.702;5.230;2024-03-29T02:40:02;6.70;;;1.27;;
27412;SDS011;14871;52.702;5.230;2024-03-29T02:42:29;3.92;;;1.02;;
27412;SDS011;14871;52.702;5.230;2024-03-29T02:44:54;3.50;;;1.15;;
27412;SDS011;14871;52.702;5.230;2024-03-29T02:47:22;5.50;;;1.08;;
27412;SDS011;14871;52.702;5.230;2024-03-29T02:49:48;7.43;;;1.15;;
27412;SDS011;14871;52.702;5.230;2024-03-29T02:52:14;4.75;;;1.20;;
27412;SDS011;14871;52.702;5.230;2024-03-29T02:54:40;3.10;;;1.23;;
27412;SDS011;14871;52.702;5.230;2024-03-29T02:57:06;4.70;;;1.25;;
27412;SDS011;14871;52.702;5.230;2024-03-29T02:59:32;5.97;;;1.10;;
27412;SDS011;14871;52.702;5.230;2024-03-29T03:01:58;5.32;;;0.98;;
27412;SDS011;14871;52.702;5.230;2024-03-29T03:04:23;5.50;;;0.90;;
27412;SDS011;14871;52.702;5.230;2024-03-29T03:06:49;6.10;;;1.00;;
27412;SDS011;14871;52.702;5.230;2024-03-29T03:09:14;5.20;;;1.00;;
27412;SDS011;14871;52.702;5.230;2024-03-29T03:11:59;5.93;;;1.13;;
27412;SDS011;14871;52.702;5.230;2024-03-29T03:14:24;6.97;;;1.23;;
27412;SDS011;14871;52.702;5.230;2024-03-29T03:16:50;4.03;;;1.00;;
27412;SDS011;14871;52.702;5.230;2024-03-29T03:19:16;8.77;;;1.10;;
27412;SDS011;14871;52.702;5.230;2024-03-29T03:21:41;6.15;;;1.13;;
27412;SDS011;14871;52.702;5.230;2024-03-29T03:24:07;4.95;;;1.10;;
27412;SDS011;14871;52.702;5.230;2024-03-29T03:26:34;5.20;;;1.23;;
27412;SDS011;14871;52.702;5.230;2024-03-29T03:28:59;3.58;;;1.10;;
27412;SDS011;14871;52.702;5.230;2024-03-29T03:31:25;3.97;;;1.25;;
27412;SDS011;14871;52.702;5.230;2024-03-29T03:33:50;4.30;;;0.80;;
27412;SDS011;14871;52.702;5.230;2024-03-29T03:36:16;5.30;;;1.35;;
27412;SDS011;14871;52.702;5.230;2024-03-29T03:38:42;4.28;;;1.00;;
27412;SDS011;14871;52.702;5.230;2024-03-29T03:41:08;2.85;;;0.90;;
27412;SDS011;14871;52.702;5.230;2024-03-29T03:43:33;4.45;;;0.77;;
27412;SDS011;14871;52.702;5.230;2024-03-29T03:46:02;4.68;;;0.90;;
27412;SDS011;14871;52.702;5.230;2024-03-29T03:48:28;7.88;;;1.02;;
27412;SDS011;14871;52.702;5.230;2024-03-29T03:50:56;5.05;;;1.13;;
27412;SDS011;14871;52.702;5.230;2024-03-29T03:53:22;7.13;;;1.02;;
27412;SDS011;14871;52.702;5.230;2024-03-29T03:55:48;6.13;;;1.20;;
27412;SDS011;14871;52.702;5.230;2024-03-29T03:58:14;6.57;;;1.38;;
27412;SDS011;14871;52.702;5.230;2024-03-29T04:00:39;6.63;;;1.10;;
27412;SDS011;14871;52.702;5.230;2024-03-29T04:03:05;8.70;;;0.90;;
27412;SDS011;14871;52.702;5.230;2024-03-29T04:05:31;6.90;;;1.38;;
27412;SDS011;14871;52.702;5.230;2024-03-29T04:07:57;5.65;;;1.00;;
27412;SDS011;14871;52.702;5.230;2024-03-29T04:10:24;5.03;;;0.98;;
27412;SDS011;14871;52.702;5.230;2024-03-29T04:12:50;5.20;;;0.98;;
27412;SDS011;14871;52.702;5.230;2024-03-29T04:15:15;6.97;;;1.30;;
27412;SDS011;14871;52.702;5.230;2024-03-29T04:17:41;3.35;;;0.90;;
27412;SDS011;14871;52.702;5.230;2024-03-29T04:20:07;6.78;;;0.90;;
27412;SDS011;14871;52.702;5.230;2024-03-29T04:22:33;3.85;;;1.08;;
27412;SDS011;14871;52.702;5.230;2024-03-29T04:24:59;4.47;;;1.00;;
27412;SDS011;14871;52.702;5.230;2024-03-29T04:27:25;6.28;;;1.33;;
27412;SDS011;14871;52.702;5.230;2024-03-29T04:29:51;5.55;;;1.00;;
27412;SDS011;14871;52.702;5.230;2024-03-29T04:32:18;6.05;;;1.58;;
27412;SDS011;14871;52.702;5.230;2024-03-29T04:34:46;9.13;;;1.27;;
27412;SDS011;14871;52.702;5.230;2024-03-29T04:37:15;4.93;;;0.95;;
27412;SDS011;14871;52.702;5.230;2024-03-29T04:39:44;5.63;;;0.90;;
27412;SDS011;14871;52.702;5.230;2024-03-29T04:42:11;5.53;;;1.20;;
27412;SDS011;14871;52.702;5.230;2024-03-29T04:44:37;7.07;;;1.95;;
27412;SDS011;14871;52.702;5.230;2024-03-29T04:47:03;2.38;;;0.90;;
27412;SDS011;14871;52.702;5.230;2024-03-29T04:49:29;6.65;;;0.75;;
27412;SDS011;14871;52.702;5.230;2024-03-29T04:52:07;4.05;;;0.73;;
27412;SDS011;14871;52.702;5.230;2024-03-29T04:54:33;3.85;;;1.05;;
27412;SDS011;14871;52.702;5.230;2024-03-29T04:56:59;6.40;;;1.42;;
27412;SDS011;14871;52.702;5.230;2024-03-29T04:59:27;5.97;;;0.88;;
27412;SDS011;14871;52.702;5.230;2024-03-29T05:01:53;5.90;;;1.10;;
27412;SDS011;14871;52.702;5.230;2024-03-29T05:04:20;5.03;;;1.02;;
27412;SDS011;14871;52.702;5.230;2024-03-29T05:06:55;3.80;;;0.98;;
27412;SDS011;14871;52.702;5.230;2024-03-29T05:09:22;7.13;;;1.10;;
27412;SDS011;14871;52.702;5.230;2024-03-29T05:11:49;3.55;;;0.52;;
27412;SDS011;14871;52.702;5.230;2024-03-29T05:14:15;5.30;;;1.00;;
27412;SDS011;14871;52.702;5.230;2024-03-29T05:16:43;3.17;;;1.08;;
27412;SDS011;14871;52.702;5.230;2024-03-29T05:19:09;4.82;;;0.98;;
27412;SDS011;14871;52.702;5.230;2024-03-29T05:21:35;4.72;;;0.80;;
27412;SDS011;14871;52.702;5.230;2024-03-29T05:24:00;3.42;;;1.20;;
27412;SDS011;14871;52.702;5.230;2024-03-29T05:26:26;4.40;;;0.85;;
27412;SDS011;14871;52.702;5.230;2024-03-29T05:28:52;5.55;;;0.95;;
27412;SDS011;14871;52.702;5.230;2024-03-29T05:31:21;4.90;;;1.00;;
27412;SDS011;14871;52.702;5.230;2024-03-29T05:33:47;1.95;;;0.68;;
27412;SDS011;14871;52.702;5.230;2024-03-29T05:36:12;2.80;;;1.00;;
27412;SDS011;14871;52.702;5.230;2024-03-29T05:38:39;3.78;;;0.85;;
27412;SDS011;14871;52.702;5.230;2024-03-29T05:41:04;5.28;;;0.88;;
27412;SDS011;14871;52.702;5.230;2024-03-29T05:43:30;6.45;;;1.50;;
27412;SDS011;14871;52.702;5.230;2024-03-29T05:45:56;3.70;;;0.82;;
27412;SDS011;14871;52.702;5.230;2024-03-29T05:48:22;3.55;;;1.00;;
27412;SDS011;14871;52.702;5.230;2024-03-29T05:50:47;3.03;;;0.80;;
27412;SDS011;14871;52.702;5.230;2024-03-29T05:53:13;4.10;;;0.88;;
27412;SDS011;14871;52.702;5.230;2024-03-29T05:55:39;3.78;;;0.80;;
27412;SDS011;14871;52.702;5.230;2024-03-29T05:58:04;2.08;;;0.52;;
27412;SDS011;14871;52.702;5.230;2024-03-29T06:00:31;4.63;;;0.68;;
27412;SDS011;14871;52.702;5.230;2024-03-29T06:02:59;1.75;;;0.60;;
27412;SDS011;14871;52.702;5.230;2024-03-29T06:05:27;2.10;;;0.60;;
27412;SDS011;14871;52.702;5.230;2024-03-29T06:07:53;2.22;;;0.40;;
27412;SDS011;14871;52.702;5.230;2024-03-29T06:10:19;3.78;;;0.90;;
27412;SDS011;14871;52.702;5.230;2024-03-29T06:12:44;2.25;;;0.60;;
27412;SDS011;14871;52.702;5.230;2024-03-29T06:15:10;4.43;;;0.63;;
27412;SDS011;14871;52.702;5.230;2024-03-29T06:17:54;3.13;;;0.70;;
27412;SDS011;14871;52.702;5.230;2024-03-29T06:20:19;1.92;;;0.40;;
27412;SDS011;14871;52.702;5.230;2024-03-29T06:22:45;1.77;;;0.40;;
27412;SDS011;14871;52.702;5.230;2024-03-29T06:25:11;1.85;;;0.38;;
27412;SDS011;14871;52.702;5.230;2024-03-29T06:27:37;2.83;;;0.40;;
27412;SDS011;14871;52.702;5.230;2024-03-29T06:30:03;1.48;;;0.47;;
27412;SDS011;14871;52.702;5.230;2024-03-29T06:32:30;0.73;;;0.30;;
27412;SDS011;14871;52.702;5.230;2024-03-29T06:34:56;2.63;;;0.60;;
27412;SDS011;14871;52.702;5.230;2024-03-29T06:37:22;2.67;;;0.35;;
27412;SDS011;14871;52.702;5.230;2024-03-29T06:39:50;1.15;;;0.50;;
27412;SDS011;14871;52.702;5.230;2024-03-29T06:42:16;1.63;;;0.50;;
27412;SDS011;14871;52.702;5.230;2024-03-29T06:44:42;1.75;;;0.30;;
27412;SDS011;14871;52.702;5.230;2024-03-29T06:47:07;2.58;;;0.30;;
27412;SDS011;14871;52.702;5.230;2024-03-29T06:49:33;1.98;;;0.40;;
27412;SDS011;14871;52.702;5.230;2024-03-29T06:51:59;1.85;;;0.60;;
27412;SDS011;14871;52.702;5.230;2024-03-29T06:54:26;4.50;;;0.57;;
27412;SDS011;14871;52.702;5.230;2024-03-29T06:56:52;1.85;;;0.50;;
27412;SDS011;14871;52.702;5.230;2024-03-29T06:59:19;1.65;;;0.43;;
27412;SDS011;14871;52.702;5.230;2024-03-29T07:01:44;3.53;;;0.50;;
27412;SDS011;14871;52.702;5.230;2024-03-29T07:04:12;2.03;;;0.50;;
27412;SDS011;14871;52.702;5.230;2024-03-29T07:06:38;1.17;;;0.40;;
27412;SDS011;14871;52.702;5.230;2024-03-29T07:09:07;2.75;;;0.50;;
27412;SDS011;14871;52.702;5.230;2024-03-29T07:11:33;2.58;;;0.40;;
27412;SDS011;14871;52.702;5.230;2024-03-29T07:13:58;4.20;;;0.50;;
27412;SDS011;14871;52.702;5.230;2024-03-29T07:16:24;4.70;;;0.43;;
27412;SDS011;14871;52.702;5.230;2024-03-29T07:18:49;1.55;;;0.32;;
27412;SDS011;14871;52.702;5.230;2024-03-29T07:21:15;1.65;;;0.38;;
27412;SDS011;14871;52.702;5.230;2024-03-29T07:23:40;2.20;;;0.40;;
27412;SDS011;14871;52.702;5.230;2024-03-29T07:26:06;3.58;;;0.52;;
27412;SDS011;14871;52.702;5.230;2024-03-29T07:28:32;2.95;;;0.50;;
27412;SDS011;14871;52.702;5.230;2024-03-29T07:30:57;3.35;;;0.40;;
27412;SDS011;14871;52.702;5.230;2024-03-29T07:33:30;5.30;;;0.60;;
27412;SDS011;14871;52.702;5.230;2024-03-29T07:35:56;3.17;;;0.30;;
27412;SDS011;14871;52.702;5.230;2024-03-29T07:38:22;1.65;;;0.57;;
27412;SDS011;14871;52.702;5.230;2024-03-29T07:40:48;1.13;;;0.45;;
27412;SDS011;14871;52.702;5.230;2024-03-29T07:43:15;2.15;;;0.25;;
27412;SDS011;14871;52.702;5.230;2024-03-29T07:45:41;2.40;;;0.63;;
27412;SDS011;14871;52.702;5.230;2024-03-29T07:48:10;2.10;;;0.40;;
27412;SDS011;14871;52.702;5.230;2024-03-29T07:50:38;2.88;;;0.50;;
27412;SDS011;14871;52.702;5.230;2024-03-29T07:53:07;1.77;;;0.43;;
27412;SDS011;14871;52.702;5.230;2024-03-29T07:55:34;1.65;;;0.50;;
27412;SDS011;14871;52.702;5.230;2024-03-29T07:58:00;3.63;;;0.60;;
27412;SDS011;14871;52.702;5.230;2024-03-29T08:00:26;1.92;;;0.43;;
27412;SDS011;14871;52.702;5.230;2024-03-29T08:02:52;0.80;;;0.40;;
27412;SDS011;14871;52.702;5.230;2024-03-29T08:05:18;4.15;;;0.57;;
27412;SDS011;14871;52.702;5.230;2024-03-29T08:07:47;1.58;;;0.50;;
27412;SDS011;14871;52.702;5.230;2024-03-29T08:10:12;1.80;;;0.57;;
27412;SDS011;14871;52.702;5.230;2024-03-29T08:12:38;2.80;;;0.50;;
27412;SDS011;14871;52.702;5.230;2024-03-29T08:15:04;2.38;;;0.65;;
27412;SDS011;14871;52.702;5.230;2024-03-29T08:17:30;3.20;;;0.50;;
27412;SDS011;14871;52.702;5.230;2024-03-29T08:19:56;4.72;;;0.65;;
27412;SDS011;14871;52.702;5.230;2024-03-29T08:22:21;1.48;;;0.40;;
27412;SDS011;14871;52.702;5.230;2024-03-29T08:24:47;2.33;;;0.52;;
27412;SDS011;14871;52.702;5.230;2024-03-29T08:27:13;1.33;;;0.43;;
27412;SDS011;14871;52.702;5.230;2024-03-29T08:29:41;3.25;;;0.88;;
27412;SDS011;14871;52.702;5.230;2024-03-29T08:32:07;0.98;;;0.40;;
27412;SDS011;14871;52.702;5.230;2024-03-29T08:34:35;2.65;;;0.60;;
27412;SDS011;14871;52.702;5.230;2024-03-29T08:37:01;1.45;;;0.60;;
27412;SDS011;14871;52.702;5.230;2024-03-29T08:39:30;2.88;;;0.50;;
27412;SDS011;14871;52.702;5.230;2024-03-29T08:41:57;4.30;;;0.70;;
27412;SDS011;14871;52.702;5.230;2024-03-29T08:44:30;3.10;;;0.60;;
27412;SDS011;14871;52.702;5.230;2024-03-29T08:46:59;2.10;;;0.60;;
27412;SDS011;14871;52.702;5.230;2024-03-29T08:49:28;0.90;;;0.50;;
27412;SDS011;14871;52.702;5.230;2024-03-29T08:51:53;3.97;;;0.70;;
27412;SDS011;14871;52.702;5.230;2024-03-29T08:54:19;1.85;;;0.80;;
27412;SDS011;14871;52.702;5.230;2024-03-29T08:56:45;1.80;;;0.70;;
27412;SDS011;14871;52.702;5.230;2024-03-29T08:59:11;1.10;;;0.68;;
27412;SDS011;14871;52.702;5.230;2024-03-29T09:01:43;2.50;;;0.50;;
27412;SDS011;14871;52.702;5.230;2024-03-29T09:04:10;2.05;;;0.52;;
27412;SDS011;14871;52.702;5.230;2024-03-29T09:06:39;3.75;;;0.45;;
27412;SDS011;14871;52.702;5.230;2024-03-29T09:09:05;0.65;;;0.40;;
27412;SDS011;14871;52.702;5.230;2024-03-29T09:11:31;3.28;;;0.50;;
27412;SDS011;14871;52.702;5.230;2024-03-29T09:13:57;0.90;;;0.40;;
27412;SDS011;14871;52.702;5.230;2024-03-29T09:16:27;2.15;;;0.65;;
27412;SDS011;14871;52.702;5.230;2024-03-29T09:18:56;3.15;;;0.80;;
27412;SDS011;14871;52.702;5.230;2024-03-29T09:21:22;2.35;;;0.57;;
27412;SDS011;14871;52.702;5.230;2024-03-29T09:23:48;1.65;;;0.63;;
27412;SDS011;14871;52.702;5.230;2024-03-29T09:26:15;1.10;;;0.50;;
27412;SDS011;14871;52.702;5.230;2024-03-29T09:28:41;0.77;;;0.35;;
27412;SDS011;14871;52.702;5.230;2024-03-29T09:31:07;2.70;;;0.55;;
27412;SDS011;14871;52.702;5.230;2024-03-29T09:33:33;1.10;;;0.30;;
27412;SDS011;14871;52.702;5.230;2024-03-29T09:35:58;2.15;;;0.57;;
27412;SDS011;14871;52.702;5.230;2024-03-29T09:38:25;0.90;;;0.50;;
27412;SDS011;14871;52.702;5.230;2024-03-29T09:40:54;2.15;;;0.50;;
27412;SDS011;14871;52.702;5.230;2024-03-29T09:43:29;2.72;;;0.60;;
27412;SDS011;14871;52.702;5.230;2024-03-29T09:45:55;2.28;;;1.55;;
27412;SDS011;14871;52.702;5.230;2024-03-29T09:48:21;1.20;;;0.40;;
27412;SDS011;14871;52.702;5.230;2024-03-29T09:50:48;1.75;;;0.52;;
27412;SDS011;14871;52.702;5.230;2024-03-29T09:53:15;0.85;;;0.47;;
27412;SDS011;14871;52.702;5.230;2024-03-29T09:55:44;1.17;;;0.57;;
27412;SDS011;14871;52.702;5.230;2024-03-29T09:58:10;0.95;;;0.50;;
27412;SDS011;14871;52.702;5.230;2024-03-29T10:00:36;2.70;;;0.52;;
27412;SDS011;14871;52.702;5.230;2024-03-29T10:03:01;1.00;;;0.40;;
27412;SDS011;14871;52.702;5.230;2024-03-29T10:05:30;1.27;;;0.55;;
27412;SDS011;14871;52.702;5.230;2024-03-29T10:07:56;1.55;;;0.47;;
27412;SDS011;14871;52.702;5.230;2024-03-29T10:10:24;1.20;;;0.43;;
27412;SDS011;14871;52.702;5.230;2024-03-29T10:12:50;0.98;;;0.65;;
27412;SDS011;14871;52.702;5.230;2024-03-29T10:15:15;1.63;;;0.70;;
27412;SDS011;14871;52.702;5.230;2024-03-29T10:17:46;2.47;;;0.60;;
27412;SDS011;14871;52.702;5.230;2024-03-29T10:20:15;2.53;;;0.63;;
27412;SDS011;14871;52.702;5.230;2024-03-29T10:22:42;2.40;;;0.50;;
27412;SDS011;14871;52.702;5.230;2024-03-29T10:25:09;1.02;;;0.60;;
27412;SDS011;14871;52.702;5.230;2024-03-29T10:27:38;1.33;;;0.55;;
27412;SDS011;14871;52.702;5.230;2024-03-29T10:30:06;1.10;;;0.40;;
27412;SDS011;14871;52.702;5.230;2024-03-29T10:32:33;1.42;;;0.60;;
27412;SDS011;14871;52.702;5.230;2024-03-29T10:35:03;1.08;;;0.50;;
27412;SDS011;14871;52.702;5.230;2024-03-29T10:37:29;2.33;;;0.70;;
27412;SDS011;14871;52.702;5.230;2024-03-29T10:39:58;1.65;;;0.60;;
27412;SDS011;14871;52.702;5.230;2024-03-29T10:42:26;0.70;;;0.50;;
27412;SDS011;14871;52.702;5.230;2024-03-29T10:44:52;1.15;;;0.60;;
27412;SDS011;14871;52.702;5.230;2024-03-29T10:47:20;3.38;;;0.70;;
27412;SDS011;14871;52.702;5.230;2024-03-29T10:49:51;1.48;;;0.40;;
27412;SDS011;14871;52.702;5.230;2024-03-29T10:52:22;1.13;;;0.70;;
27412;SDS011;14871;52.702;5.230;2024-03-29T10:54:49;1.30;;;0.85;;
27412;SDS011;14871;52.702;5.230;2024-03-29T10:57:19;1.20;;;0.63;;
27412;SDS011;14871;52.702;5.230;2024-03-29T10:59:49;0.80;;;0.65;;
27412;SDS011;14871;52.702;5.230;2024-03-29T11:02:24;1.20;;;0.73;;
27412;SDS011;14871;52.702;5.230;2024-03-29T11:05:06;2.03;;;0.80;;
27412;SDS011;14871;52.702;5.230;2024-03-29T11:07:35;3.03;;;0.93;;
27412;SDS011;14871;52.702;5.230;2024-03-29T11:10:05;1.10;;;0.68;;
27412;SDS011;14871;52.702;5.230;2024-03-29T11:12:38;1.20;;;0.90;;
27412;SDS011;14871;52.702;5.230;2024-03-29T11:15:28;2.10;;;1.02;;
27412;SDS011;14871;52.702;5.230;2024-03-29T11:17:55;1.00;;;0.90;;
27412;SDS011;14871;52.702;5.230;2024-03-29T11:20:31;1.10;;;1.00;;
27412;SDS011;14871;52.702;5.230;2024-03-29T11:23:02;1.70;;;0.52;;
27412;SDS011;14871;52.702;5.230;2024-03-29T11:25:42;1.45;;;0.70;;
27412;SDS011;14871;52.702;5.230;2024-03-29T11:28:10;1.02;;;0.60;;
27412;SDS011;14871;52.702;5.230;2024-03-29T11:30:42;0.70;;;0.60;;
27412;SDS011;14871;52.702;5.230;2024-03-29T11:36:17;0.93;;;0.50;;
27412;SDS011;14871;52.702;5.230;2024-03-29T11:38:47;1.70;;;0.77;;
27412;SDS011;14871;52.702;5.230;2024-03-29T11:41:17;1.27;;;0.80;;
27412;SDS011;14871;52.702;5.230;2024-03-29T11:43:44;1.38;;;1.05;;
27412;SDS011;14871;52.702;5.230;2024-03-29T11:46:11;1.55;;;1.20;;
27412;SDS011;14871;52.702;5.230;2024-03-29T11:48:37;2.25;;;1.10;;
27412;SDS011;14871;52.702;5.230;2024-03-29T11:51:04;1.88;;;1.00;;
27412;SDS011;14871;52.702;5.230;2024-03-29T11:53:31;2.58;;;1.30;;
27412;SDS011;14871;52.702;5.230;2024-03-29T11:55:58;2.35;;;1.30;;
27412;SDS011;14871;52.702;5.230;2024-03-29T11:58:24;2.65;;;1.90;;
27412;SDS011;14871;52.702;5.230;2024-03-29T12:00:52;1.55;;;1.45;;
27412;SDS011;14871;52.702;5.230;2024-03-29T12:03:19;2.35;;;1.63;;
27412;SDS011;14871;52.702;5.230;2024-03-29T12:05:47;1.90;;;1.67;;
27412;SDS011;14871;52.702;5.230;2024-03-29T12:08:15;4.82;;;1.88;;
27412;SDS011;14871;52.702;5.230;2024-03-29T12:10:41;2.63;;;1.50;;
27412;SDS011;14871;52.702;5.230;2024-03-29T12:13:08;3.70;;;1.80;;
27412;SDS011;14871;52.702;5.230;2024-03-29T12:15:34;3.15;;;1.80;;
27412;SDS011;14871;52.702;5.230;2024-03-29T12:18:01;6.60;;;2.35;;
27412;SDS011;14871;52.702;5.230;2024-03-29T12:20:29;2.15;;;1.73;;
27412;SDS011;14871;52.702;5.230;2024-03-29T12:22:56;3.38;;;1.95;;
27412;SDS011;14871;52.702;5.230;2024-03-29T12:25:26;2.40;;;2.03;;
27412;SDS011;14871;52.702;5.230;2024-03-29T12:27:53;2.63;;;2.10;;
27412;SDS011;14871;52.702;5.230;2024-03-29T12:30:19;3.33;;;2.50;;
27412;SDS011;14871;52.702;5.230;2024-03-29T12:32:45;3.03;;;2.72;;
27412;SDS011;14871;52.702;5.230;2024-03-29T12:35:11;3.85;;;3.00;;
27412;SDS011;14871;52.702;5.230;2024-03-29T12:37:46;3.65;;;3.05;;
27412;SDS011;14871;52.702;5.230;2024-03-29T12:40:16;3.80;;;3.20;;
27412;SDS011;14871;52.702;5.230;2024-03-29T12:42:47;3.53;;;3.22;;
27412;SDS011;14871;52.702;5.230;2024-03-29T12:45:16;5.30;;;4.22;;
27412;SDS011;14871;52.702;5.230;2024-03-29T12:47:44;3.85;;;3.45;;
27412;SDS011;14871;52.702;5.230;2024-03-29T12:50:19;3.75;;;3.38;;
27412;SDS011;14871;52.702;5.230;2024-03-29T12:52:50;3.80;;;3.47;;
27412;SDS011;14871;52.702;5.230;2024-03-29T12:55:39;3.28;;;2.55;;
27412;SDS011;14871;52.702;5.230;2024-03-29T12:58:15;3.15;;;2.78;;
27412;SDS011;14871;52.702;5.230;2024-03-29T13:00:43;4.00;;;3.10;;
27412;SDS011;14871;52.702;5.230;2024-03-29T13:03:09;3.33;;;2.58;;
27412;SDS011;14871;52.702;5.230;2024-03-29T13:05:35;3.53;;;2.88;;
27412;SDS011;14871;52.702;5.230;2024-03-29T13:08:05;3.90;;;2.75;;
27412;SDS011;14871;52.702;5.230;2024-03-29T13:10:34;2.65;;;2.15;;
27412;SDS011;14871;52.702;5.230;2024-03-29T13:13:00;3.40;;;2.30;;
27412;SDS011;14871;52.702;5.230;2024-03-29T13:15:26;4.15;;;2.42;;
27412;SDS011;14871;52.702;5.230;2024-03-29T13:17:53;3.90;;;2.65;;
27412;SDS011;14871;52.702;5.230;2024-03-29T13:20:20;3.95;;;2.83;;
27412;SDS011;14871;52.702;5.230;2024-03-29T13:22:46;5.68;;;2.58;;
27412;SDS011;14871;52.702;5.230;2024-03-29T13:25:18;2.50;;;2.30;;
27412;SDS011;14871;52.702;5.230;2024-03-29T13:27:45;3.38;;;2.60;;
27412;SDS011;14871;52.702;5.230;2024-03-29T13:30:14;3.53;;;2.67;;
27412;SDS011;14871;52.702;5.230;2024-03-29T13:32:40;6.20;;;2.30;;
27412;SDS011;14871;52.702;5.230;2024-03-29T13:35:07;3.92;;;2.50;;
27412;SDS011;14871;52.702;5.230;2024-03-29T13:37:39;3.22;;;2.50;;
27412;SDS011;14871;52.702;5.230;2024-03-29T13:40:06;3.30;;;2.40;;
27412;SDS011;14871;52.702;5.230;2024-03-29T13:42:33;2.40;;;2.08;;
27412;SDS011;14871;52.702;5.230;2024-03-29T13:44:59;2.78;;;2.30;;
27412;SDS011;14871;52.702;5.230;2024-03-29T13:47:25;4.22;;;2.33;;
27412;SDS011;14871;52.702;5.230;2024-03-29T13:49:51;4.68;;;1.85;;
27412;SDS011;14871;52.702;5.230;2024-03-29T13:52:18;2.30;;;2.10;;
27412;SDS011;14871;52.702;5.230;2024-03-29T13:54:45;4.03;;;2.50;;
27412;SDS011;14871;52.702;5.230;2024-03-29T13:57:16;3.53;;;2.20;;
27412;SDS011;14871;52.702;5.230;2024-03-29T13:59:41;3.03;;;2.63;;
27412;SDS011;14871;52.702;5.230;2024-03-29T14:02:12;2.50;;;2.30;;
27412;SDS011;14871;52.702;5.230;2024-03-29T14:04:42;3.03;;;2.15;;
27412;SDS011;14871;52.702;5.230;2024-03-29T14:07:08;2.05;;;1.80;;
27412;SDS011;14871;52.702;5.230;2024-03-29T14:09:36;2.53;;;1.90;;
27412;SDS011;14871;52.702;5.230;2024-03-29T14:12:03;3.65;;;2.42;;
27412;SDS011;14871;52.702;5.230;2024-03-29T14:14:29;3.78;;;2.03;;
27412;SDS011;14871;52.702;5.230;2024-03-29T14:16:56;4.97;;;1.83;;
27412;SDS011;14871;52.702;5.230;2024-03-29T14:19:21;2.05;;;1.73;;
27412;SDS011;14871;52.702;5.230;2024-03-29T14:21:47;3.85;;;1.48;;
27412;SDS011;14871;52.702;5.230;2024-03-29T14:24:13;4.95;;;1.73;;
27412;SDS011;14871;52.702;5.230;2024-03-29T14:26:38;2.38;;;2.17;;
27412;SDS011;14871;52.702;5.230;2024-03-29T14:29:04;2.95;;;1.55;;
27412;SDS011;14871;52.702;5.230;2024-03-29T14:31:31;1.73;;;1.30;;
27412;SDS011;14871;52.702;5.230;2024-03-29T14:33:57;2.83;;;1.60;;
27412;SDS011;14871;52.702;5.230;2024-03-29T14:36:23;2.05;;;1.60;;
27412;SDS011;14871;52.702;5.230;2024-03-29T14:38:49;3.75;;;1.45;;
27412;SDS011;14871;52.702;5.230;2024-03-29T14:41:15;5.50;;;1.92;;
27412;SDS011;14871;52.702;5.230;2024-03-29T14:43:41;2.85;;;1.80;;
27412;SDS011;14871;52.702;5.230;2024-03-29T14:46:09;3.25;;;1.73;;
27412;SDS011;14871;52.702;5.230;2024-03-29T14:48:35;4.07;;;1.60;;
27412;SDS011;14871;52.702;5.230;2024-03-29T14:51:00;3.25;;;1.40;;